Terminal Aerodrome Forecast
Issued by NWS

Home | Current Version | Previous Version | Text Only | Print | Product List | Glossary On
Versions: 1 2 3 4 5 6 7 8 9 10 11 12 13 14 15 16 17 18
000
FTUS41 KPHI 220100 AAA
TAFPNE
TAF AMD
KPNE 220103Z 2201/2224 13006KT P6SM SCT025
      TEMPO 2201/2205 BKN025
     FM220500 VRB03KT P6SM BKN025 OVC040
     FM220900 08004KT 4SM -SHRA BR OVC025
     FM221500 09006KT P6SM BKN040=

USA.gov is the U.S. government's official web portal to all federal, state and local government web resources and services.